sensor_id;sensor_type;location;lat;lon;timestamp;pressure;altitude;pressure_sealevel;temperature;humidity
26865;BME280;40618;51.166;10.322;2023-04-28T00:01:19;97458.56;;;6.91;56.47
26865;BME280;40618;51.166;10.322;2023-04-28T00:03:44;97453.50;;;6.83;56.37
26865;BME280;40618;51.166;10.322;2023-04-28T00:06:10;97460.41;;;6.83;56.48
26865;BME280;40618;51.166;10.322;2023-04-28T00:08:36;97460.47;;;6.78;56.30
26865;BME280;40618;51.166;10.322;2023-04-28T00:11:02;97452.75;;;6.76;56.04
26865;BME280;40618;51.166;10.322;2023-04-28T00:13:27;97455.34;;;6.75;56.60
26865;BME280;40618;51.166;10.322;2023-04-28T00:15:54;97456.25;;;6.72;56.47
26865;BME280;40618;51.166;10.322;2023-04-28T00:18:20;97443.38;;;6.74;56.95
26865;BME280;40618;51.166;10.322;2023-04-28T00:20:46;97430.47;;;6.75;56.40
26865;BME280;40618;51.166;10.322;2023-04-28T00:23:12;97428.78;;;6.74;56.65
26865;BME280;40618;51.166;10.322;2023-04-28T00:25:38;97429.72;;;6.69;56.73
26865;BME280;40618;51.166;10.322;2023-04-28T00:28:03;97432.28;;;6.70;56.53
26865;BME280;40618;51.166;10.322;2023-04-28T00:30:29;97423.72;;;6.70;56.84
26865;BME280;40618;51.166;10.322;2023-04-28T00:32:55;97424.63;;;6.64;56.73
26865;BME280;40618;51.166;10.322;2023-04-28T00:35:21;97422.19;;;6.56;56.91
26865;BME280;40618;51.166;10.322;2023-04-28T00:37:48;97414.47;;;6.56;57.01
26865;BME280;40618;51.166;10.322;2023-04-28T00:40:13;97413.56;;;6.59;56.84
26865;BME280;40618;51.166;10.322;2023-04-28T00:42:39;97412.72;;;6.57;57.27
26865;BME280;40618;51.166;10.322;2023-04-28T00:45:05;97412.00;;;6.49;57.10
26865;BME280;40618;51.166;10.322;2023-04-28T00:47:32;97419.81;;;6.41;57.30
26865;BME280;40618;51.166;10.322;2023-04-28T00:50:00;97413.81;;;6.40;57.12
26865;BME280;40618;51.166;10.322;2023-04-28T00:52:26;97403.53;;;6.40;57.35
26865;BME280;40618;51.166;10.322;2023-04-28T00:54:53;97399.22;;;6.41;57.22
26865;BME280;40618;51.166;10.322;2023-04-28T00:57:21;97400.94;;;6.42;57.24
26865;BME280;40618;51.166;10.322;2023-04-28T00:59:47;97413.81;;;6.40;57.68
26865;BME280;40618;51.166;10.322;2023-04-28T01:02:13;97404.38;;;6.41;57.62
26865;BME280;40618;51.166;10.322;2023-04-28T01:04:43;97403.59;;;6.37;57.42
26865;BME280;40618;51.166;10.322;2023-04-28T01:07:09;97392.56;;;6.29;57.78
26865;BME280;40618;51.166;10.322;2023-04-28T01:09:35;97395.13;;;6.29;57.53
26865;BME280;40618;51.166;10.322;2023-04-28T01:12:01;97393.38;;;6.31;57.34
26865;BME280;40618;51.166;10.322;2023-04-28T01:14:27;97396.00;;;6.28;57.76
26865;BME280;40618;51.166;10.322;2023-04-28T01:16:53;97388.34;;;6.22;57.53
26865;BME280;40618;51.166;10.322;2023-04-28T01:19:20;97386.59;;;6.25;57.70
26865;BME280;40618;51.166;10.322;2023-04-28T01:21:49;97397.81;;;6.20;57.73
26865;BME280;40618;51.166;10.322;2023-04-28T01:24:15;97384.19;;;6.13;57.83
26865;BME280;40618;51.166;10.322;2023-04-28T01:26:41;97385.03;;;6.15;57.53
26865;BME280;40618;51.166;10.322;2023-04-28T01:29:07;97386.84;;;6.08;57.89
26865;BME280;40618;51.166;10.322;2023-04-28T01:31:33;97378.38;;;6.02;58.38
26865;BME280;40618;51.166;10.322;2023-04-28T01:33:59;97368.06;;;6.03;58.23
26865;BME280;40618;51.166;10.322;2023-04-28T01:36:25;97376.63;;;6.02;57.69
26865;BME280;40618;51.166;10.322;2023-04-28T01:38:52;97361.22;;;6.02;58.11
26865;BME280;40618;51.166;10.322;2023-04-28T01:41:19;97366.38;;;6.01;58.25
26865;BME280;40618;51.166;10.322;2023-04-28T01:43:44;97362.91;;;6.03;58.17
26865;BME280;40618;51.166;10.322;2023-04-28T01:46:10;97362.88;;;6.06;58.22
26865;BME280;40618;51.166;10.322;2023-04-28T01:48:36;97361.94;;;6.10;58.22
26865;BME280;40618;51.166;10.322;2023-04-28T01:51:01;97349.13;;;6.09;58.05
26865;BME280;40618;51.166;10.322;2023-04-28T01:53:27;97352.59;;;6.06;58.06
26865;BME280;40618;51.166;10.322;2023-04-28T01:55:53;97354.38;;;6.00;57.87
26865;BME280;40618;51.166;10.322;2023-04-28T01:58:18;97347.53;;;5.97;58.23
26865;BME280;40618;51.166;10.322;2023-04-28T02:00:44;97342.50;;;5.91;57.80
26865;BME280;40618;51.166;10.322;2023-04-28T02:03:10;97340.72;;;5.93;58.52
26865;BME280;40618;51.166;10.322;2023-04-28T02:05:36;97347.56;;;5.94;58.56
26865;BME280;40618;51.166;10.322;2023-04-28T02:08:01;97337.28;;;5.96;58.44
26865;BME280;40618;51.166;10.322;2023-04-28T02:10:27;97342.47;;;5.92;58.27
26865;BME280;40618;51.166;10.322;2023-04-28T02:12:53;97334.03;;;5.83;58.56
26865;BME280;40618;51.166;10.322;2023-04-28T02:15:19;97336.56;;;5.86;58.62
26865;BME280;40618;51.166;10.322;2023-04-28T02:17:45;97339.97;;;5.85;58.58
26865;BME280;40618;51.166;10.322;2023-04-28T02:20:11;97330.59;;;5.84;58.40
26865;BME280;40618;51.166;10.322;2023-04-28T02:22:39;97332.38;;;5.79;58.40
26865;BME280;40618;51.166;10.322;2023-04-28T02:25:05;97326.38;;;5.80;58.59
26865;BME280;40618;51.166;10.322;2023-04-28T02:27:31;97329.81;;;5.77;58.65
26865;BME280;40618;51.166;10.322;2023-04-28T02:29:57;97329.88;;;5.72;58.72
26865;BME280;40618;51.166;10.322;2023-04-28T02:32:22;97316.19;;;5.72;58.66
26865;BME280;40618;51.166;10.322;2023-04-28T02:34:52;97315.28;;;5.74;58.59
26865;BME280;40618;51.166;10.322;2023-04-28T02:37:19;97316.16;;;5.73;58.78
26865;BME280;40618;51.166;10.322;2023-04-28T02:39:45;97319.63;;;5.71;58.72
26865;BME280;40618;51.166;10.322;2023-04-28T02:42:11;97311.94;;;5.69;58.80
26865;BME280;40618;51.166;10.322;2023-04-28T02:44:37;97310.19;;;5.73;58.57
26865;BME280;40618;51.166;10.322;2023-04-28T02:47:02;97318.69;;;5.75;59.06
26865;BME280;40618;51.166;10.322;2023-04-28T02:49:28;97311.00;;;5.75;58.69
26865;BME280;40618;51.166;10.322;2023-04-28T02:51:53;97305.00;;;5.76;58.92
26865;BME280;40618;51.166;10.322;2023-04-28T02:54:19;97292.16;;;5.74;58.82
26865;BME280;40618;51.166;10.322;2023-04-28T02:56:55;97281.91;;;5.73;58.73
26865;BME280;40618;51.166;10.322;2023-04-28T02:59:23;97287.91;;;5.72;58.82
26865;BME280;40618;51.166;10.322;2023-04-28T03:01:49;97278.47;;;5.74;58.79
26865;BME280;40618;51.166;10.322;2023-04-28T03:04:16;97281.94;;;5.71;58.75
26865;BME280;40618;51.166;10.322;2023-04-28T03:06:42;97270.84;;;5.68;58.74
26865;BME280;40618;51.166;10.322;2023-04-28T03:09:08;97270.00;;;5.66;58.74
26865;BME280;40618;51.166;10.322;2023-04-28T03:11:35;97253.69;;;5.70;59.27
26865;BME280;40618;51.166;10.322;2023-04-28T03:14:01;97265.63;;;5.72;58.86
26865;BME280;40618;51.166;10.322;2023-04-28T03:16:26;97275.91;;;5.72;59.17
26865;BME280;40618;51.166;10.322;2023-04-28T03:18:52;97263.91;;;5.74;58.69
26865;BME280;40618;51.166;10.322;2023-04-28T03:21:18;97269.88;;;5.75;59.06
26865;BME280;40618;51.166;10.322;2023-04-28T03:23:43;97266.47;;;5.74;59.00
26865;BME280;40618;51.166;10.322;2023-04-28T03:26:09;97264.69;;;5.78;58.76
26865;BME280;40618;51.166;10.322;2023-04-28T03:28:35;97265.53;;;5.80;58.95
26865;BME280;40618;51.166;10.322;2023-04-28T03:31:00;97259.53;;;5.81;58.83
26865;BME280;40618;51.166;10.322;2023-04-28T03:33:27;97256.09;;;5.81;58.87
26865;BME280;40618;51.166;10.322;2023-04-28T03:35:53;97246.66;;;5.83;59.00
26865;BME280;40618;51.166;10.322;2023-04-28T03:38:19;97249.28;;;5.78;58.60
26865;BME280;40618;51.166;10.322;2023-04-28T03:40:45;97246.72;;;5.78;59.23
26865;BME280;40618;51.166;10.322;2023-04-28T03:43:10;97240.69;;;5.81;59.14
26865;BME280;40618;51.166;10.322;2023-04-28T03:45:36;97236.38;;;5.83;58.83
26865;BME280;40618;51.166;10.322;2023-04-28T03:48:02;97230.34;;;5.85;58.90
26865;BME280;40618;51.166;10.322;2023-04-28T03:50:28;97232.09;;;5.82;59.07
26865;BME280;40618;51.166;10.322;2023-04-28T03:52:53;97232.16;;;5.79;58.79
26865;BME280;40618;51.166;10.322;2023-04-28T03:55:20;97227.84;;;5.81;58.87
26865;BME280;40618;51.166;10.322;2023-04-28T03:57:45;97232.09;;;5.83;58.93
26865;BME280;40618;51.166;10.322;2023-04-28T04:00:11;97230.41;;;5.81;58.78
26865;BME280;40618;51.166;10.322;2023-04-28T04:02:37;97226.19;;;5.76;58.65
26865;BME280;40618;51.166;10.322;2023-04-28T04:05:03;97228.75;;;5.76;58.88
26865;BME280;40618;51.166;10.322;2023-04-28T04:07:29;97230.44;;;5.79;59.08
26865;BME280;40618;51.166;10.322;2023-04-28T04:09:55;97225.28;;;5.79;59.07
26865;BME280;40618;51.166;10.322;2023-04-28T04:12:20;97224.38;;;5.83;59.20
26865;BME280;40618;51.166;10.322;2023-04-28T04:14:46;97217.44;;;5.90;59.07
26865;BME280;40618;51.166;10.322;2023-04-28T04:17:11;97219.09;;;5.92;58.90
26865;BME280;40618;51.166;10.322;2023-04-28T04:19:37;97220.81;;;5.93;59.01
26865;BME280;40618;51.166;10.322;2023-04-28T04:22:03;97221.63;;;5.96;58.98
26865;BME280;40618;51.166;10.322;2023-04-28T04:24:28;97214.84;;;5.91;59.05
26865;BME280;40618;51.166;10.322;2023-04-28T04:26:54;97219.13;;;5.91;58.90
26865;BME280;40618;51.166;10.322;2023-04-28T04:29:19;97223.38;;;5.93;58.95
26865;BME280;40618;51.166;10.322;2023-04-28T04:31:45;97226.78;;;5.94;59.09
26865;BME280;40618;51.166;10.322;2023-04-28T04:34:11;97219.91;;;5.98;59.18
26865;BME280;40618;51.166;10.322;2023-04-28T04:36:37;97209.63;;;5.98;59.17
26865;BME280;40618;51.166;10.322;2023-04-28T04:39:02;97212.16;;;6.01;59.05
26865;BME280;40618;51.166;10.322;2023-04-28T04:41:28;97210.41;;;6.04;58.95
26865;BME280;40618;51.166;10.322;2023-04-28T04:43:54;97200.09;;;6.06;58.84
26865;BME280;40618;51.166;10.322;2023-04-28T04:46:19;97200.91;;;6.08;59.01
26865;BME280;40618;51.166;10.322;2023-04-28T04:48:45;97195.72;;;6.09;59.17
26865;BME280;40618;51.166;10.322;2023-04-28T04:51:11;97200.00;;;6.10;59.36
26865;BME280;40618;51.166;10.322;2023-04-28T04:53:37;97192.31;;;6.09;59.17
26865;BME280;40618;51.166;10.322;2023-04-28T04:56:03;97200.88;;;6.11;59.37
26865;BME280;40618;51.166;10.322;2023-04-28T04:58:29;97198.28;;;6.13;59.49
26865;BME280;40618;51.166;10.322;2023-04-28T05:00:55;97201.66;;;6.15;59.09
26865;BME280;40618;51.166;10.322;2023-04-28T05:03:20;97203.38;;;6.14;59.10
26865;BME280;40618;51.166;10.322;2023-04-28T05:05:46;97197.38;;;6.15;59.38
26865;BME280;40618;51.166;10.322;2023-04-28T05:08:12;97192.16;;;6.18;59.65
26865;BME280;40618;51.166;10.322;2023-04-28T05:10:38;97190.41;;;6.20;59.87
26865;BME280;40618;51.166;10.322;2023-04-28T05:13:04;97187.81;;;6.22;59.50
26865;BME280;40618;51.166;10.322;2023-04-28T05:15:30;97186.09;;;6.22;59.40
26865;BME280;40618;51.166;10.322;2023-04-28T05:17:56;97185.25;;;6.20;59.56
26865;BME280;40618;51.166;10.322;2023-04-28T05:20:22;97190.38;;;6.22;59.81
26865;BME280;40618;51.166;10.322;2023-04-28T05:22:48;97187.81;;;6.22;59.69
26865;BME280;40618;51.166;10.322;2023-04-28T05:25:14;97193.81;;;6.22;60.04
26865;BME280;40618;51.166;10.322;2023-04-28T05:27:40;97187.81;;;6.22;60.02
26865;BME280;40618;51.166;10.322;2023-04-28T05:30:06;97199.03;;;6.19;60.03
26865;BME280;40618;51.166;10.322;2023-04-28T05:32:34;97200.72;;;6.19;59.82
26865;BME280;40618;51.166;10.322;2023-04-28T05:35:00;97197.25;;;6.21;60.21
26865;BME280;40618;51.166;10.322;2023-04-28T05:37:26;97201.50;;;6.24;60.25
26865;BME280;40618;51.166;10.322;2023-04-28T05:39:51;97198.97;;;6.22;60.10
26865;BME280;40618;51.166;10.322;2023-04-28T05:42:17;97198.94;;;6.24;60.25
26865;BME280;40618;51.166;10.322;2023-04-28T05:44:42;97198.06;;;6.25;60.52
26865;BME280;40618;51.166;10.322;2023-04-28T05:47:08;97203.16;;;6.28;60.79
26865;BME280;40618;51.166;10.322;2023-04-28T05:49:33;97204.00;;;6.27;60.46
26865;BME280;40618;51.166;10.322;2023-04-28T05:51:59;97201.53;;;6.22;60.95
26865;BME280;40618;51.166;10.322;2023-04-28T05:54:25;97206.63;;;6.24;60.99
26865;BME280;40618;51.166;10.322;2023-04-28T05:56:51;97198.09;;;6.22;61.09
26865;BME280;40618;51.166;10.322;2023-04-28T05:59:17;97192.94;;;6.23;61.54
26865;BME280;40618;51.166;10.322;2023-04-28T06:01:43;97188.66;;;6.24;61.18
26865;BME280;40618;51.166;10.322;2023-04-28T06:04:09;97192.09;;;6.23;61.66
26865;BME280;40618;51.166;10.322;2023-04-28T06:06:35;97195.53;;;6.23;61.75
26865;BME280;40618;51.166;10.322;2023-04-28T06:09:01;97187.84;;;6.20;62.00
26865;BME280;40618;51.166;10.322;2023-04-28T06:11:27;97176.72;;;6.20;62.03
26865;BME280;40618;51.166;10.322;2023-04-28T06:13:53;97176.69;;;6.21;61.93
26865;BME280;40618;51.166;10.322;2023-04-28T06:16:19;97162.16;;;6.19;62.11
26865;BME280;40618;51.166;10.322;2023-04-28T06:18:45;97169.91;;;6.17;62.10
26865;BME280;40618;51.166;10.322;2023-04-28T06:21:11;97168.38;;;6.07;62.41
26865;BME280;40618;51.166;10.322;2023-04-28T06:23:36;97163.31;;;6.01;62.34
26865;BME280;40618;51.166;10.322;2023-04-28T06:26:04;97167.69;;;5.94;62.90
26865;BME280;40618;51.166;10.322;2023-04-28T06:28:30;97176.25;;;5.93;62.98
26865;BME280;40618;51.166;10.322;2023-04-28T06:30:56;97173.72;;;5.91;62.99
26865;BME280;40618;51.166;10.322;2023-04-28T06:33:21;97176.31;;;5.90;63.07
26865;BME280;40618;51.166;10.322;2023-04-28T06:35:47;97167.78;;;5.86;63.45
26865;BME280;40618;51.166;10.322;2023-04-28T06:38:13;97178.16;;;5.82;63.08
26865;BME280;40618;51.166;10.322;2023-04-28T06:40:38;97178.19;;;5.80;63.15
26865;BME280;40618;51.166;10.322;2023-04-28T06:43:04;97178.19;;;5.80;63.07
26865;BME280;40618;51.166;10.322;2023-04-28T06:45:30;97173.81;;;5.85;63.93
26865;BME280;40618;51.166;10.322;2023-04-28T06:47:56;97172.88;;;5.91;63.67
26865;BME280;40618;51.166;10.322;2023-04-28T06:50:22;97179.66;;;5.95;63.80
26865;BME280;40618;51.166;10.322;2023-04-28T06:52:48;97178.81;;;5.98;63.95
26865;BME280;40618;51.166;10.322;2023-04-28T06:55:15;97180.47;;;6.00;63.76
26865;BME280;40618;51.166;10.322;2023-04-28T06:57:41;97171.00;;;6.02;63.78
26865;BME280;40618;51.166;10.322;2023-04-28T07:00:08;97168.44;;;6.02;64.07
26865;BME280;40618;51.166;10.322;2023-04-28T07:02:35;97161.59;;;6.03;64.24
26865;BME280;40618;51.166;10.322;2023-04-28T07:05:01;97169.25;;;6.06;64.14
26865;BME280;40618;51.166;10.322;2023-04-28T07:07:28;97153.78;;;6.07;64.28
26865;BME280;40618;51.166;10.322;2023-04-28T07:09:54;97151.19;;;6.09;64.34
26865;BME280;40618;51.166;10.322;2023-04-28T07:12:20;97153.72;;;6.10;64.79
26865;BME280;40618;51.166;10.322;2023-04-28T07:14:46;97152.84;;;6.12;64.28
26865;BME280;40618;51.166;10.322;2023-04-28T07:17:12;97163.06;;;6.16;64.71
26865;BME280;40618;51.166;10.322;2023-04-28T07:19:38;97163.88;;;6.18;64.52
26865;BME280;40618;51.166;10.322;2023-04-28T07:22:04;97157.84;;;6.21;64.61
26865;BME280;40618;51.166;10.322;2023-04-28T07:24:29;97167.25;;;6.22;64.96
26865;BME280;40618;51.166;10.322;2023-04-28T07:26:55;97164.66;;;6.22;65.12
26865;BME280;40618;51.166;10.322;2023-04-28T07:29:22;97165.56;;;6.21;65.11
26865;BME280;40618;51.166;10.322;2023-04-28T07:31:48;97170.72;;;6.21;65.09
26865;BME280;40618;51.166;10.322;2023-04-28T07:34:14;97174.97;;;6.20;65.21
26865;BME280;40618;51.166;10.322;2023-04-28T07:36:40;97166.38;;;6.23;65.16
26865;BME280;40618;51.166;10.322;2023-04-28T07:39:06;97170.59;;;6.27;65.24
26865;BME280;40618;51.166;10.322;2023-04-28T07:41:36;97153.38;;;6.31;65.45
26865;BME280;40618;51.166;10.322;2023-04-28T07:44:04;97150.72;;;6.35;65.41
26865;BME280;40618;51.166;10.322;2023-04-28T07:46:31;97148.13;;;6.38;66.11
26865;BME280;40618;51.166;10.322;2023-04-28T07:48:56;97148.88;;;6.42;65.54
26865;BME280;40618;51.166;10.322;2023-04-28T07:51:22;97148.00;;;6.44;65.83
26865;BME280;40618;51.166;10.322;2023-04-28T07:53:48;97149.56;;;6.52;65.75
26865;BME280;40618;51.166;10.322;2023-04-28T07:56:13;97143.47;;;6.56;66.06
26865;BME280;40618;51.166;10.322;2023-04-28T07:58:40;97135.72;;;6.59;66.21
26865;BME280;40618;51.166;10.322;2023-04-28T08:01:06;97139.91;;;6.65;66.64
26865;BME280;40618;51.166;10.322;2023-04-28T08:03:31;97144.16;;;6.67;66.71
26865;BME280;40618;51.166;10.322;2023-04-28T08:05:57;97147.44;;;6.72;66.83
26865;BME280;40618;51.166;10.322;2023-04-28T08:08:23;97140.44;;;6.81;66.72
26865;BME280;40618;51.166;10.322;2023-04-28T08:10:49;97134.34;;;6.86;66.58
26865;BME280;40618;51.166;10.322;2023-04-28T08:13:15;97125.66;;;6.90;67.03
26865;BME280;40618;51.166;10.322;2023-04-28T08:15:41;97135.81;;;6.97;66.66
26865;BME280;40618;51.166;10.322;2023-04-28T08:18:07;97135.75;;;7.00;66.83
26865;BME280;40618;51.166;10.322;2023-04-28T08:20:33;97121.09;;;7.03;66.83
26865;BME280;40618;51.166;10.322;2023-04-28T08:22:58;97124.47;;;7.07;66.75
26865;BME280;40618;51.166;10.322;2023-04-28T08:25:25;97120.03;;;7.14;67.04
26865;BME280;40618;51.166;10.322;2023-04-28T08:27:51;97119.88;;;7.20;67.09
26865;BME280;40618;51.166;10.322;2023-04-28T08:30:16;97118.97;;;7.22;67.36
26865;BME280;40618;51.166;10.322;2023-04-28T08:32:42;97117.19;;;7.24;67.43
26865;BME280;40618;51.166;10.322;2023-04-28T08:35:08;97128.28;;;7.28;67.29
26865;BME280;40618;51.166;10.322;2023-04-28T08:37:34;97114.53;;;7.29;67.68
26865;BME280;40618;51.166;10.322;2023-04-28T08:40:00;97107.59;;;7.31;67.38
26865;BME280;40618;51.166;10.322;2023-04-28T08:42:30;97116.97;;;7.35;67.56
26865;BME280;40618;51.166;10.322;2023-04-28T08:44:57;97120.31;;;7.39;67.10
26865;BME280;40618;51.166;10.322;2023-04-28T08:47:32;97103.13;;;7.41;67.35
26865;BME280;40618;51.166;10.322;2023-04-28T08:50:06;97105.56;;;7.45;67.72
26865;BME280;40618;51.166;10.322;2023-04-28T08:52:34;97102.03;;;7.50;68.10
26865;BME280;40618;51.166;10.322;2023-04-28T08:55:05;97106.16;;;7.57;67.58
26865;BME280;40618;51.166;10.322;2023-04-28T08:57:48;97096.47;;;7.67;68.07
26865;BME280;40618;51.166;10.322;2023-04-28T09:00:18;97096.25;;;7.76;67.90
26865;BME280;40618;51.166;10.322;2023-04-28T09:02:43;97088.25;;;7.87;68.32
26865;BME280;40618;51.166;10.322;2023-04-28T09:05:10;97082.91;;;7.94;68.38
26865;BME280;40618;51.166;10.322;2023-04-28T09:07:38;97087.81;;;8.05;68.29
26865;BME280;40618;51.166;10.322;2023-04-28T09:12:49;97069.84;;;8.34;68.33
26865;BME280;40618;51.166;10.322;2023-04-28T09:15:29;97070.47;;;8.43;68.18
26865;BME280;40618;51.166;10.322;2023-04-28T09:17:59;97064.06;;;8.57;68.59
26865;BME280;40618;51.166;10.322;2023-04-28T09:20:27;97074.88;;;8.71;68.08
26865;BME280;40618;51.166;10.322;2023-04-28T09:22:55;97067.59;;;8.84;68.83
26865;BME280;40618;51.166;10.322;2023-04-28T09:25:36;97075.91;;;8.95;68.37
26865;BME280;40618;51.166;10.322;2023-04-28T09:28:18;97074.97;;;8.98;68.06
26865;BME280;40618;51.166;10.322;2023-04-28T09:30:46;97081.78;;;8.99;68.25
26865;BME280;40618;51.166;10.322;2023-04-28T09:33:12;97081.00;;;8.97;68.12
26865;BME280;40618;51.166;10.322;2023-04-28T09:35:42;97079.34;;;8.94;68.26
26865;BME280;40618;51.166;10.322;2023-04-28T09:38:09;97075.13;;;8.92;68.47
26865;BME280;40618;51.166;10.322;2023-04-28T09:40:55;97076.00;;;8.91;67.75
26865;BME280;40618;51.166;10.322;2023-04-28T09:43:31;97077.72;;;8.92;68.20
26865;BME280;40618;51.166;10.322;2023-04-28T09:46:00;97076.78;;;8.94;68.27
26865;BME280;40618;51.166;10.322;2023-04-28T09:48:33;97072.34;;;9.00;68.02
26865;BME280;40618;51.166;10.322;2023-04-28T09:51:05;97065.47;;;8.98;68.37
26865;BME280;40618;51.166;10.322;2023-04-28T09:53:32;97077.53;;;8.98;68.16
26865;BME280;40618;51.166;10.322;2023-04-28T09:56:01;97075.84;;;8.97;67.68
26865;BME280;40618;51.166;10.322;2023-04-28T09:58:29;97070.78;;;8.94;68.07
26865;BME280;40618;51.166;10.322;2023-04-28T10:00:58;97071.72;;;8.91;67.96
26865;BME280;40618;51.166;10.322;2023-04-28T10:03:27;97066.56;;;8.91;67.48
26865;BME280;40618;51.166;10.322;2023-04-28T10:05:53;97074.31;;;8.90;68.65
26865;BME280;40618;51.166;10.322;2023-04-28T10:08:23;97073.53;;;8.88;67.57
26865;BME280;40618;51.166;10.322;2023-04-28T10:10:50;97072.66;;;8.89;67.82
26865;BME280;40618;51.166;10.322;2023-04-28T10:13:21;97070.22;;;8.83;68.00
26865;BME280;40618;51.166;10.322;2023-04-28T10:15:48;97077.41;;;8.73;68.15
26865;BME280;40618;51.166;10.322;2023-04-28T10:18:15;97075.75;;;8.70;67.80
26865;BME280;40618;51.166;10.322;2023-04-28T10:20:43;97073.22;;;8.69;68.19
26865;BME280;40618;51.166;10.322;2023-04-28T10:26:56;97066.41;;;8.66;68.48
26865;BME280;40618;51.166;10.322;2023-04-28T10:29:25;97062.94;;;8.67;68.43
26865;BME280;40618;51.166;10.322;2023-04-28T10:32:13;97056.84;;;8.70;68.38
26865;BME280;40618;51.166;10.322;2023-04-28T10:34:39;97035.22;;;8.74;68.51
26865;BME280;40618;51.166;10.322;2023-04-28T10:37:05;97026.38;;;8.81;68.33
26865;BME280;40618;51.166;10.322;2023-04-28T10:39:31;97026.03;;;8.93;68.85
26865;BME280;40618;51.166;10.322;2023-04-28T10:41:57;97024.75;;;9.07;68.56
26865;BME280;40618;51.166;10.322;2023-04-28T10:47:08;97033.47;;;9.31;69.44
26865;BME280;40618;51.166;10.322;2023-04-28T10:55:33;97033.16;;;9.40;69.14
26865;BME280;40618;51.166;10.322;2023-04-28T11:00:46;97031.56;;;9.38;69.07
26865;BME280;40618;51.166;10.322;2023-04-28T11:06:41;97028.81;;;9.42;69.48
26865;BME280;40618;51.166;10.322;2023-04-28T11:11:38;97009.97;;;9.39;69.66
26865;BME280;40618;51.166;10.322;2023-04-28T11:16:56;97010.06;;;9.36;70.26
26865;BME280;40618;51.166;10.322;2023-04-28T11:21:59;97009.91;;;9.40;70.46
26865;BME280;40618;51.166;10.322;2023-04-28T11:24:27;97016.78;;;9.41;69.82
26865;BME280;40618;51.166;10.322;2023-04-28T11:26:55;97018.47;;;9.42;70.09
26865;BME280;40618;51.166;10.322;2023-04-28T11:32:07;97020.91;;;9.47;70.13
26865;BME280;40618;51.166;10.322;2023-04-28T11:34:35;97018.25;;;9.48;70.37
26865;BME280;40618;51.166;10.322;2023-04-28T11:37:01;97010.50;;;9.48;70.84
26865;BME280;40618;51.166;10.322;2023-04-28T11:39:32;97013.09;;;9.48;70.73
26865;BME280;40618;51.166;10.322;2023-04-28T11:42:08;97013.94;;;9.49;71.04
26865;BME280;40618;51.166;10.322;2023-04-28T11:44:35;97013.09;;;9.48;70.80
26865;BME280;40618;51.166;10.322;2023-04-28T11:47:02;97007.09;;;9.48;70.47
26865;BME280;40618;51.166;10.322;2023-04-28T11:49:30;97016.53;;;9.49;70.95
26865;BME280;40618;51.166;10.322;2023-04-28T11:52:06;97008.78;;;9.49;70.56
26865;BME280;40618;51.166;10.322;2023-04-28T11:54:33;97011.41;;;9.47;70.58
26865;BME280;40618;51.166;10.322;2023-04-28T11:56:59;97003.63;;;9.49;71.39
26865;BME280;40618;51.166;10.322;2023-04-28T11:59:30;96996.56;;;9.54;71.34
26865;BME280;40618;51.166;10.322;2023-04-28T12:02:02;96997.22;;;9.59;71.09
26865;BME280;40618;51.166;10.322;2023-04-28T12:04:36;96990.34;;;9.60;70.81
26865;BME280;40618;51.166;10.322;2023-04-28T12:09:47;96987.81;;;9.58;71.19
26865;BME280;40618;51.166;10.322;2023-04-28T12:12:33;96990.34;;;9.60;71.33
26865;BME280;40618;51.166;10.322;2023-04-28T12:15:00;96991.13;;;9.62;70.97
26865;BME280;40618;51.166;10.322;2023-04-28T12:17:35;96987.69;;;9.61;71.75
26865;BME280;40618;51.166;10.322;2023-04-28T12:20:06;96986.69;;;9.65;71.20
26865;BME280;40618;51.166;10.322;2023-04-28T12:25:12;96983.69;;;9.78;72.14
26865;BME280;40618;51.166;10.322;2023-04-28T12:27:41;96979.28;;;9.80;71.46
26865;BME280;40618;51.166;10.322;2023-04-28T12:32:47;96980.78;;;9.87;72.28
26865;BME280;40618;51.166;10.322;2023-04-28T12:35:13;96977.28;;;9.88;71.89
26865;BME280;40618;51.166;10.322;2023-04-28T12:37:41;96968.69;;;9.88;71.98
26865;BME280;40618;51.166;10.322;2023-04-28T12:40:08;96973.66;;;9.94;72.29
26865;BME280;40618;51.166;10.322;2023-04-28T12:42:34;96969.97;;;10.01;72.36
26865;BME280;40618;51.166;10.322;2023-04-28T12:45:01;96965.28;;;10.11;72.19
26865;BME280;40618;51.166;10.322;2023-04-28T12:47:27;96958.84;;;10.23;72.00
26865;BME280;40618;51.166;10.322;2023-04-28T12:49:53;96964.41;;;10.36;72.27
26865;BME280;40618;51.166;10.322;2023-04-28T12:52:19;96961.63;;;10.42;71.96
26865;BME280;40618;51.166;10.322;2023-04-28T12:54:45;96956.38;;;10.43;71.91
26865;BME280;40618;51.166;10.322;2023-04-28T12:57:15;96956.38;;;10.43;72.17
26865;BME280;40618;51.166;10.322;2023-04-28T12:59:43;96958.09;;;10.43;71.70
26865;BME280;40618;51.166;10.322;2023-04-28T13:02:09;96963.28;;;10.43;72.06
26865;BME280;40618;51.166;10.322;2023-04-28T13:04:35;96961.56;;;10.43;71.92
26865;BME280;40618;51.166;10.322;2023-04-28T13:07:01;96962.44;;;10.42;71.50
26865;BME280;40618;51.166;10.322;2023-04-28T13:09:27;96961.69;;;10.40;71.48
26865;BME280;40618;51.166;10.322;2023-04-28T13:11:53;96953.06;;;10.40;71.63
26865;BME280;40618;51.166;10.322;2023-04-28T13:14:19;96943.56;;;10.40;71.99
26865;BME280;40618;51.166;10.322;2023-04-28T13:16:45;96948.56;;;10.45;72.09
26865;BME280;40618;51.166;10.322;2023-04-28T13:19:11;96944.88;;;10.50;72.40
26865;BME280;40618;51.166;10.322;2023-04-28T13:21:41;96943.09;;;10.53;72.02
26865;BME280;40618;51.166;10.322;2023-04-28T13:24:08;96943.88;;;10.55;72.54
26865;BME280;40618;51.166;10.322;2023-04-28T13:26:34;96944.00;;;10.52;71.77
26865;BME280;40618;51.166;10.322;2023-04-28T13:29:02;96947.47;;;10.50;72.36
26865;BME280;40618;51.166;10.322;2023-04-28T13:31:29;96944.00;;;10.52;72.31
26865;BME280;40618;51.166;10.322;2023-04-28T13:33:55;96936.22;;;10.52;71.89
26865;BME280;40618;51.166;10.322;2023-04-28T13:36:22;96937.00;;;10.54;72.31
26865;BME280;40618;51.166;10.322;2023-04-28T13:38:48;96939.56;;;10.55;72.68